sensor_id;sensor_type;location;lat;lon;timestamp;temperature;humidity
41310;DHT22;27057;51.438;-0.010;2023-04-12T00:00:46;9.60;99.90
41310;DHT22;27057;51.438;-0.010;2023-04-12T00:03:14;8.80;99.90
41310;DHT22;27057;51.438;-0.010;2023-04-12T00:05:47;8.80;99.90
41310;DHT22;27057;51.438;-0.010;2023-04-12T00:08:14;8.50;99.90
41310;DHT22;27057;51.438;-0.010;2023-04-12T00:10:43;8.40;99.90
41310;DHT22;27057;51.438;-0.010;2023-04-12T00:13:10;9.00;99.90
41310;DHT22;27057;51.438;-0.010;2023-04-12T00:15:38;8.50;99.90
41310;DHT22;27057;51.438;-0.010;2023-04-12T00:18:05;8.60;99.90
41310;DHT22;27057;51.438;-0.010;2023-04-12T00:20:33;8.30;99.90
41310;DHT22;27057;51.438;-0.010;2023-04-12T00:23:00;8.80;99.90
41310;DHT22;27057;51.438;-0.010;2023-04-12T00:25:28;8.90;99.90
41310;DHT22;27057;51.438;-0.010;2023-04-12T00:27:55;8.80;99.90
41310;DHT22;27057;51.438;-0.010;2023-04-12T00:30:24;8.60;99.90
41310;DHT22;27057;51.438;-0.010;2023-04-12T00:35:19;8.30;99.90
41310;DHT22;27057;51.438;-0.010;2023-04-12T00:37:47;8.60;99.90
41310;DHT22;27057;51.438;-0.010;2023-04-12T00:40:14;8.60;99.90
41310;DHT22;27057;51.438;-0.010;2023-04-12T00:45:13;8.60;99.90
41310;DHT22;27057;51.438;-0.010;2023-04-12T00:47:42;9.00;99.90
41310;DHT22;27057;51.438;-0.010;2023-04-12T00:50:10;8.60;99.90
41310;DHT22;27057;51.438;-0.010;2023-04-12T00:52:38;8.50;99.90
41310;DHT22;27057;51.438;-0.010;2023-04-12T00:55:06;8.60;99.90
41310;DHT22;27057;51.438;-0.010;2023-04-12T00:57:37;8.60;99.90
41310;DHT22;27057;51.438;-0.010;2023-04-12T01:00:09;8.30;99.90
41310;DHT22;27057;51.438;-0.010;2023-04-12T01:02:44;8.50;99.90
41310;DHT22;27057;51.438;-0.010;2023-04-12T01:05:19;8.60;99.90
41310;DHT22;27057;51.438;-0.010;2023-04-12T01:10:55;8.50;99.90
41310;DHT22;27057;51.438;-0.010;2023-04-12T01:16:27;9.70;99.90
41310;DHT22;27057;51.438;-0.010;2023-04-12T01:19:03;8.50;99.90
41310;DHT22;27057;51.438;-0.010;2023-04-12T01:21:47;9.40;99.90
41310;DHT22;27057;51.438;-0.010;2023-04-12T01:30:09;8.50;99.90
41310;DHT22;27057;51.438;-0.010;2023-04-12T01:32:39;8.40;99.90
41310;DHT22;27057;51.438;-0.010;2023-04-12T01:35:09;8.40;99.90
41310;DHT22;27057;51.438;-0.010;2023-04-12T01:37:38;8.20;99.90
41310;DHT22;27057;51.438;-0.010;2023-04-12T01:40:07;8.70;99.90
41310;DHT22;27057;51.438;-0.010;2023-04-12T01:42:35;8.30;99.90
41310;DHT22;27057;51.438;-0.010;2023-04-12T01:45:03;8.70;99.90
41310;DHT22;27057;51.438;-0.010;2023-04-12T01:47:31;8.10;99.90
41310;DHT22;27057;51.438;-0.010;2023-04-12T01:52:39;8.20;99.90
41310;DHT22;27057;51.438;-0.010;2023-04-12T01:55:09;8.40;99.90
41310;DHT22;27057;51.438;-0.010;2023-04-12T01:57:37;8.20;99.90
41310;DHT22;27057;51.438;-0.010;2023-04-12T02:00:07;8.40;99.90
41310;DHT22;27057;51.438;-0.010;2023-04-12T02:02:39;8.40;99.90
41310;DHT22;27057;51.438;-0.010;2023-04-12T02:05:08;9.30;99.90
41310;DHT22;27057;51.438;-0.010;2023-04-12T02:07:37;8.10;99.90
41310;DHT22;27057;51.438;-0.010;2023-04-12T02:10:05;9.10;99.90
41310;DHT22;27057;51.438;-0.010;2023-04-12T02:12:32;8.30;99.90
41310;DHT22;27057;51.438;-0.010;2023-04-12T02:15:01;8.20;99.90
41310;DHT22;27057;51.438;-0.010;2023-04-12T02:17:30;8.20;99.90
41310;DHT22;27057;51.438;-0.010;2023-04-12T02:19:57;8.10;99.90
41310;DHT22;27057;51.438;-0.010;2023-04-12T02:22:24;8.20;99.90
41310;DHT22;27057;51.438;-0.010;2023-04-12T02:24:53;8.20;99.90
41310;DHT22;27057;51.438;-0.010;2023-04-12T02:27:20;8.20;99.90
41310;DHT22;27057;51.438;-0.010;2023-04-12T02:29:48;8.60;99.90
41310;DHT22;27057;51.438;-0.010;2023-04-12T02:32:16;8.20;99.90
41310;DHT22;27057;51.438;-0.010;2023-04-12T02:34:44;8.30;99.90
41310;DHT22;27057;51.438;-0.010;2023-04-12T02:37:19;8.30;99.90
41310;DHT22;27057;51.438;-0.010;2023-04-12T02:42:16;8.30;99.90
41310;DHT22;27057;51.438;-0.010;2023-04-12T02:44:46;8.30;99.90
41310;DHT22;27057;51.438;-0.010;2023-04-12T02:47:14;8.30;99.90
41310;DHT22;27057;51.438;-0.010;2023-04-12T02:49:45;8.20;99.90
41310;DHT22;27057;51.438;-0.010;2023-04-12T02:52:16;8.10;99.90
41310;DHT22;27057;51.438;-0.010;2023-04-12T02:55:00;8.00;99.90
41310;DHT22;27057;51.438;-0.010;2023-04-12T02:57:28;8.30;99.90
41310;DHT22;27057;51.438;-0.010;2023-04-12T03:02:39;8.00;99.90
41310;DHT22;27057;51.438;-0.010;2023-04-12T03:05:12;8.10;99.90
41310;DHT22;27057;51.438;-0.010;2023-04-12T03:07:42;7.60;99.90
41310;DHT22;27057;51.438;-0.010;2023-04-12T03:10:10;8.00;99.90
41310;DHT22;27057;51.438;-0.010;2023-04-12T03:12:46;7.90;99.90
41310;DHT22;27057;51.438;-0.010;2023-04-12T03:15:16;7.90;99.90
41310;DHT22;27057;51.438;-0.010;2023-04-12T03:17:53;7.80;99.90
41310;DHT22;27057;51.438;-0.010;2023-04-12T03:20:26;7.90;99.90
41310;DHT22;27057;51.438;-0.010;2023-04-12T03:23:06;7.80;99.90
41310;DHT22;27057;51.438;-0.010;2023-04-12T03:25:37;7.60;99.90
41310;DHT22;27057;51.438;-0.010;2023-04-12T03:28:21;7.70;99.90
41310;DHT22;27057;51.438;-0.010;2023-04-12T03:30:51;7.30;99.90
41310;DHT22;27057;51.438;-0.010;2023-04-12T03:33:23;7.60;99.90
41310;DHT22;27057;51.438;-0.010;2023-04-12T03:35:54;8.80;99.90
41310;DHT22;27057;51.438;-0.010;2023-04-12T03:38:22;7.50;99.90
41310;DHT22;27057;51.438;-0.010;2023-04-12T03:43:25;7.50;99.90
41310;DHT22;27057;51.438;-0.010;2023-04-12T03:45:54;8.20;99.90
41310;DHT22;27057;51.438;-0.010;2023-04-12T03:48:24;7.40;99.90
41310;DHT22;27057;51.438;-0.010;2023-04-12T03:50:52;7.10;99.90
41310;DHT22;27057;51.438;-0.010;2023-04-12T03:53:22;5.90;99.90
41310;DHT22;27057;51.438;-0.010;2023-04-12T03:55:50;7.30;99.90
41310;DHT22;27057;51.438;-0.010;2023-04-12T03:58:18;7.90;99.90
41310;DHT22;27057;51.438;-0.010;2023-04-12T04:00:47;7.60;99.90
41310;DHT22;27057;51.438;-0.010;2023-04-12T04:03:15;7.20;99.90
41310;DHT22;27057;51.438;-0.010;2023-04-12T04:05:49;7.10;99.90
41310;DHT22;27057;51.438;-0.010;2023-04-12T04:10:50;7.00;99.90
41310;DHT22;27057;51.438;-0.010;2023-04-12T04:13:19;7.00;99.90
41310;DHT22;27057;51.438;-0.010;2023-04-12T04:15:55;7.00;99.90
41310;DHT22;27057;51.438;-0.010;2023-04-12T04:18:26;7.00;99.90
41310;DHT22;27057;51.438;-0.010;2023-04-12T04:20:53;6.80;99.90
41310;DHT22;27057;51.438;-0.010;2023-04-12T04:23:21;6.80;99.90
41310;DHT22;27057;51.438;-0.010;2023-04-12T04:25:49;6.80;99.90
41310;DHT22;27057;51.438;-0.010;2023-04-12T04:28:20;6.80;99.90
41310;DHT22;27057;51.438;-0.010;2023-04-12T04:30:49;6.80;99.90
41310;DHT22;27057;51.438;-0.010;2023-04-12T04:35:47;6.60;99.90
41310;DHT22;27057;51.438;-0.010;2023-04-12T04:38:26;6.60;99.90
41310;DHT22;27057;51.438;-0.010;2023-04-12T04:41:03;6.60;99.90
41310;DHT22;27057;51.438;-0.010;2023-04-12T04:43:45;6.50;99.90
41310;DHT22;27057;51.438;-0.010;2023-04-12T04:48:43;6.40;99.90
41310;DHT22;27057;51.438;-0.010;2023-04-12T04:53:39;6.40;99.90
41310;DHT22;27057;51.438;-0.010;2023-04-12T04:56:09;6.30;99.90
41310;DHT22;27057;51.438;-0.010;2023-04-12T04:58:38;8.30;99.90
41310;DHT22;27057;51.438;-0.010;2023-04-12T05:01:06;6.60;99.90
41310;DHT22;27057;51.438;-0.010;2023-04-12T05:03:34;6.40;99.90
41310;DHT22;27057;51.438;-0.010;2023-04-12T05:06:04;6.30;99.90
41310;DHT22;27057;51.438;-0.010;2023-04-12T05:08:33;6.20;99.90
41310;DHT22;27057;51.438;-0.010;2023-04-12T05:11:00;6.70;99.90
41310;DHT22;27057;51.438;-0.010;2023-04-12T05:15:56;6.10;99.90
41310;DHT22;27057;51.438;-0.010;2023-04-12T05:18:23;8.50;99.90
41310;DHT22;27057;51.438;-0.010;2023-04-12T05:20:51;6.00;99.90
41310;DHT22;27057;51.438;-0.010;2023-04-12T05:23:19;6.10;99.90
41310;DHT22;27057;51.438;-0.010;2023-04-12T05:25:47;6.10;99.90
41310;DHT22;27057;51.438;-0.010;2023-04-12T05:28:17;6.50;99.90
41310;DHT22;27057;51.438;-0.010;2023-04-12T05:30:45;6.00;99.90
41310;DHT22;27057;51.438;-0.010;2023-04-12T05:35:46;6.00;99.90
41310;DHT22;27057;51.438;-0.010;2023-04-12T05:38:13;5.90;99.90
41310;DHT22;27057;51.438;-0.010;2023-04-12T05:40:41;5.90;99.90
41310;DHT22;27057;51.438;-0.010;2023-04-12T05:43:12;5.90;99.90
41310;DHT22;27057;51.438;-0.010;2023-04-12T05:45:40;6.00;99.90
41310;DHT22;27057;51.438;-0.010;2023-04-12T05:48:09;6.20;99.90
41310;DHT22;27057;51.438;-0.010;2023-04-12T05:50:36;6.10;99.90
41310;DHT22;27057;51.438;-0.010;2023-04-12T05:53:04;6.10;99.90
41310;DHT22;27057;51.438;-0.010;2023-04-12T05:55:33;6.10;99.90
41310;DHT22;27057;51.438;-0.010;2023-04-12T05:58:04;6.20;99.90
41310;DHT22;27057;51.438;-0.010;2023-04-12T06:00:32;6.00;99.90
41310;DHT22;27057;51.438;-0.010;2023-04-12T06:03:00;6.10;99.90
41310;DHT22;27057;51.438;-0.010;2023-04-12T06:05:27;6.10;99.90
41310;DHT22;27057;51.438;-0.010;2023-04-12T06:07:56;6.60;99.90
41310;DHT22;27057;51.438;-0.010;2023-04-12T06:10:26;7.40;99.90
41310;DHT22;27057;51.438;-0.010;2023-04-12T06:12:54;6.60;99.90
41310;DHT22;27057;51.438;-0.010;2023-04-12T06:15:22;6.60;99.90
41310;DHT22;27057;51.438;-0.010;2023-04-12T06:17:53;6.40;99.90
41310;DHT22;27057;51.438;-0.010;2023-04-12T06:20:21;6.70;99.90
41310;DHT22;27057;51.438;-0.010;2023-04-12T06:22:49;6.70;99.90
41310;DHT22;27057;51.438;-0.010;2023-04-12T06:25:17;7.00;99.90
41310;DHT22;27057;51.438;-0.010;2023-04-12T06:32:43;7.10;99.90
41310;DHT22;27057;51.438;-0.010;2023-04-12T06:35:11;7.10;99.90
41310;DHT22;27057;51.438;-0.010;2023-04-12T06:37:38;7.10;99.90
41310;DHT22;27057;51.438;-0.010;2023-04-12T06:40:07;7.20;99.90
41310;DHT22;27057;51.438;-0.010;2023-04-12T06:42:34;7.20;99.90
41310;DHT22;27057;51.438;-0.010;2023-04-12T06:45:03;7.40;99.90
41310;DHT22;27057;51.438;-0.010;2023-04-12T06:49:59;7.40;99.90
41310;DHT22;27057;51.438;-0.010;2023-04-12T06:52:26;7.40;99.90
41310;DHT22;27057;51.438;-0.010;2023-04-12T06:54:55;7.50;99.90
41310;DHT22;27057;51.438;-0.010;2023-04-12T06:57:23;7.50;99.90
41310;DHT22;27057;51.438;-0.010;2023-04-12T06:59:50;7.70;99.90
41310;DHT22;27057;51.438;-0.010;2023-04-12T07:02:18;7.70;99.90
41310;DHT22;27057;51.438;-0.010;2023-04-12T07:04:45;8.00;99.90
41310;DHT22;27057;51.438;-0.010;2023-04-12T07:07:13;7.70;99.90
41310;DHT22;27057;51.438;-0.010;2023-04-12T07:09:40;7.50;99.90
41310;DHT22;27057;51.438;-0.010;2023-04-12T07:12:09;8.80;99.90
41310;DHT22;27057;51.438;-0.010;2023-04-12T07:17:04;7.70;99.90
41310;DHT22;27057;51.438;-0.010;2023-04-12T07:19:31;7.70;99.90
41310;DHT22;27057;51.438;-0.010;2023-04-12T07:21:59;8.40;99.90
41310;DHT22;27057;51.438;-0.010;2023-04-12T07:24:27;8.00;99.90
41310;DHT22;27057;51.438;-0.010;2023-04-12T07:26:54;8.00;99.90
41310;DHT22;27057;51.438;-0.010;2023-04-12T07:31:49;8.30;99.90
41310;DHT22;27057;51.438;-0.010;2023-04-12T07:34:17;9.10;99.90
41310;DHT22;27057;51.438;-0.010;2023-04-12T07:36:45;9.40;99.90
41310;DHT22;27057;51.438;-0.010;2023-04-12T07:41:42;8.10;99.90
41310;DHT22;27057;51.438;-0.010;2023-04-12T07:44:12;8.10;99.90
41310;DHT22;27057;51.438;-0.010;2023-04-12T07:46:40;7.80;99.90
41310;DHT22;27057;51.438;-0.010;2023-04-12T07:49:08;8.00;99.90
41310;DHT22;27057;51.438;-0.010;2023-04-12T07:51:36;8.30;99.90
41310;DHT22;27057;51.438;-0.010;2023-04-12T07:54:04;8.00;99.90
41310;DHT22;27057;51.438;-0.010;2023-04-12T07:56:35;8.20;99.90
41310;DHT22;27057;51.438;-0.010;2023-04-12T07:59:02;8.20;99.90
41310;DHT22;27057;51.438;-0.010;2023-04-12T08:01:31;9.10;99.90
41310;DHT22;27057;51.438;-0.010;2023-04-12T08:03:58;8.40;99.90
41310;DHT22;27057;51.438;-0.010;2023-04-12T08:08:58;8.40;99.90
41310;DHT22;27057;51.438;-0.010;2023-04-12T08:13:53;8.50;99.90
41310;DHT22;27057;51.438;-0.010;2023-04-12T08:16:20;9.50;99.90
41310;DHT22;27057;51.438;-0.010;2023-04-12T08:18:48;8.70;99.90
41310;DHT22;27057;51.438;-0.010;2023-04-12T08:21:15;8.50;99.90
41310;DHT22;27057;51.438;-0.010;2023-04-12T08:23:43;8.50;99.90
41310;DHT22;27057;51.438;-0.010;2023-04-12T08:26:12;8.60;99.90
41310;DHT22;27057;51.438;-0.010;2023-04-12T08:28:39;8.70;99.90
41310;DHT22;27057;51.438;-0.010;2023-04-12T08:33:34;9.90;99.90
41310;DHT22;27057;51.438;-0.010;2023-04-12T08:36:02;8.90;99.90
41310;DHT22;27057;51.438;-0.010;2023-04-12T08:38:30;9.10;99.90
41310;DHT22;27057;51.438;-0.010;2023-04-12T08:41:12;9.20;99.90
41310;DHT22;27057;51.438;-0.010;2023-04-12T08:43:43;9.70;99.90
41310;DHT22;27057;51.438;-0.010;2023-04-12T08:46:14;10.20;99.90
41310;DHT22;27057;51.438;-0.010;2023-04-12T08:48:46;9.90;99.90
41310;DHT22;27057;51.438;-0.010;2023-04-12T08:51:16;9.80;99.90
41310;DHT22;27057;51.438;-0.010;2023-04-12T08:53:44;9.80;99.90
41310;DHT22;27057;51.438;-0.010;2023-04-12T08:56:12;9.70;99.90
41310;DHT22;27057;51.438;-0.010;2023-04-12T08:58:44;10.00;99.90
41310;DHT22;27057;51.438;-0.010;2023-04-12T09:01:16;9.80;99.90
41310;DHT22;27057;51.438;-0.010;2023-04-12T09:03:45;10.50;99.90
41310;DHT22;27057;51.438;-0.010;2023-04-12T09:08:54;9.50;99.90
41310;DHT22;27057;51.438;-0.010;2023-04-12T09:11:25;9.20;99.90
41310;DHT22;27057;51.438;-0.010;2023-04-12T09:13:56;9.00;99.90
41310;DHT22;27057;51.438;-0.010;2023-04-12T09:16:41;8.70;99.90
41310;DHT22;27057;51.438;-0.010;2023-04-12T09:19:08;8.90;99.90
41310;DHT22;27057;51.438;-0.010;2023-04-12T09:21:51;8.90;99.90
41310;DHT22;27057;51.438;-0.010;2023-04-12T09:27:05;8.70;99.90
41310;DHT22;27057;51.438;-0.010;2023-04-12T09:29:33;8.90;99.90
41310;DHT22;27057;51.438;-0.010;2023-04-12T09:32:03;8.70;99.90
41310;DHT22;27057;51.438;-0.010;2023-04-12T09:34:32;8.80;99.90
41310;DHT22;27057;51.438;-0.010;2023-04-12T09:37:12;8.80;99.90
41310;DHT22;27057;51.438;-0.010;2023-04-12T09:39:40;8.60;99.90
41310;DHT22;27057;51.438;-0.010;2023-04-12T09:42:12;9.20;99.90
41310;DHT22;27057;51.438;-0.010;2023-04-12T09:45:02;9.10;99.90
41310;DHT22;27057;51.438;-0.010;2023-04-12T09:47:44;9.30;99.90
41310;DHT22;27057;51.438;-0.010;2023-04-12T09:50:24;9.20;99.90
41310;DHT22;27057;51.438;-0.010;2023-04-12T09:52:57;9.30;99.90
41310;DHT22;27057;51.438;-0.010;2023-04-12T09:55:26;9.70;99.90
41310;DHT22;27057;51.438;-0.010;2023-04-12T09:57:55;9.90;99.90
41310;DHT22;27057;51.438;-0.010;2023-04-12T10:00:23;9.70;99.90
41310;DHT22;27057;51.438;-0.010;2023-04-12T10:02:54;10.30;99.90
41310;DHT22;27057;51.438;-0.010;2023-04-12T10:05:24;10.00;99.90
41310;DHT22;27057;51.438;-0.010;2023-04-12T10:07:54;10.10;99.90
41310;DHT22;27057;51.438;-0.010;2023-04-12T10:10:27;10.10;99.90
41310;DHT22;27057;51.438;-0.010;2023-04-12T10:12:54;10.00;99.90
41310;DHT22;27057;51.438;-0.010;2023-04-12T10:15:23;10.70;99.90
41310;DHT22;27057;51.438;-0.010;2023-04-12T10:17:57;10.50;99.90
41310;DHT22;27057;51.438;-0.010;2023-04-12T10:20:25;10.70;99.90
41310;DHT22;27057;51.438;-0.010;2023-04-12T10:22:56;10.60;99.90
41310;DHT22;27057;51.438;-0.010;2023-04-12T10:25:28;10.70;99.90
41310;DHT22;27057;51.438;-0.010;2023-04-12T10:28:18;10.80;99.90
41310;DHT22;27057;51.438;-0.010;2023-04-12T10:30:47;10.60;99.90
41310;DHT22;27057;51.438;-0.010;2023-04-12T10:33:24;10.60;99.90
41310;DHT22;27057;51.438;-0.010;2023-04-12T10:38:25;10.90;99.90
41310;DHT22;27057;51.438;-0.010;2023-04-12T10:41:16;10.60;99.90
41310;DHT22;27057;51.438;-0.010;2023-04-12T10:43:46;11.10;99.90
41310;DHT22;27057;51.438;-0.010;2023-04-12T10:49:12;11.00;99.90
41310;DHT22;27057;51.438;-0.010;2023-04-12T10:56:57;11.10;99.90
41310;DHT22;27057;51.438;-0.010;2023-04-12T10:59:53;11.40;99.90
41310;DHT22;27057;51.438;-0.010;2023-04-12T11:05:06;10.50;99.90
41310;DHT22;27057;51.438;-0.010;2023-04-12T11:08:07;11.40;99.90
41310;DHT22;27057;51.438;-0.010;2023-04-12T11:11:20;11.50;99.90
41310;DHT22;27057;51.438;-0.010;2023-04-12T11:13:53;12.10;99.90
41310;DHT22;27057;51.438;-0.010;2023-04-12T11:16:23;11.80;99.90
41310;DHT22;27057;51.438;-0.010;2023-04-12T11:18:55;11.90;99.90
41310;DHT22;27057;51.438;-0.010;2023-04-12T11:21:27;11.80;99.90
41310;DHT22;27057;51.438;-0.010;2023-04-12T11:24:04;11.70;99.90
41310;DHT22;27057;51.438;-0.010;2023-04-12T11:26:32;11.60;99.90
41310;DHT22;27057;51.438;-0.010;2023-04-12T11:29:06;13.00;99.90
41310;DHT22;27057;51.438;-0.010;2023-04-12T11:31:37;11.60;99.90
41310;DHT22;27057;51.438;-0.010;2023-04-12T11:34:07;12.00;99.90
41310;DHT22;27057;51.438;-0.010;2023-04-12T11:36:35;12.20;99.90
41310;DHT22;27057;51.438;-0.010;2023-04-12T11:39:03;12.30;99.90
41310;DHT22;27057;51.438;-0.010;2023-04-12T11:41:31;12.10;99.90
41310;DHT22;27057;51.438;-0.010;2023-04-12T11:43:59;12.00;99.90
41310;DHT22;27057;51.438;-0.010;2023-04-12T11:46:35;11.70;99.90
41310;DHT22;27057;51.438;-0.010;2023-04-12T11:49:03;11.30;99.90
41310;DHT22;27057;51.438;-0.010;2023-04-12T11:51:33;11.10;99.90
41310;DHT22;27057;51.438;-0.010;2023-04-12T11:54:02;11.20;99.90
41310;DHT22;27057;51.438;-0.010;2023-04-12T11:56:31;11.20;99.90
41310;DHT22;27057;51.438;-0.010;2023-04-12T11:59:33;12.10;99.90
41310;DHT22;27057;51.438;-0.010;2023-04-12T12:02:01;12.40;99.90
41310;DHT22;27057;51.438;-0.010;2023-04-12T12:04:51;12.70;99.90
41310;DHT22;27057;51.438;-0.010;2023-04-12T12:07:25;12.60;99.90
41310;DHT22;27057;51.438;-0.010;2023-04-12T12:09:56;12.40;99.90
41310;DHT22;27057;51.438;-0.010;2023-04-12T12:12:26;12.00;99.90
41310;DHT22;27057;51.438;-0.010;2023-04-12T12:14:58;11.60;99.90
41310;DHT22;27057;51.438;-0.010;2023-04-12T12:17:36;11.80;99.90
41310;DHT22;27057;51.438;-0.010;2023-04-12T12:20:12;12.20;99.90
41310;DHT22;27057;51.438;-0.010;2023-04-12T12:22:55;11.50;99.90
41310;DHT22;27057;51.438;-0.010;2023-04-12T12:25:23;11.70;99.90
41310;DHT22;27057;51.438;-0.010;2023-04-12T12:27:56;10.60;99.90
41310;DHT22;27057;51.438;-0.010;2023-04-12T12:30:24;11.20;99.90
41310;DHT22;27057;51.438;-0.010;2023-04-12T12:32:51;9.10;99.90
41310;DHT22;27057;51.438;-0.010;2023-04-12T12:35:19;8.70;99.90
41310;DHT22;27057;51.438;-0.010;2023-04-12T12:37:48;8.60;99.90
41310;DHT22;27057;51.438;-0.010;2023-04-12T12:40:28;9.20;99.90
41310;DHT22;27057;51.438;-0.010;2023-04-12T12:42:59;10.20;99.90
41310;DHT22;27057;51.438;-0.010;2023-04-12T12:45:30;10.10;99.90
41310;DHT22;27057;51.438;-0.010;2023-04-12T12:48:02;11.90;99.90
41310;DHT22;27057;51.438;-0.010;2023-04-12T12:50:32;11.10;99.90
41310;DHT22;27057;51.438;-0.010;2023-04-12T12:53:01;11.50;99.90
41310;DHT22;27057;51.438;-0.010;2023-04-12T12:55:29;12.00;99.90
41310;DHT22;27057;51.438;-0.010;2023-04-12T12:57:57;12.40;99.90
41310;DHT22;27057;51.438;-0.010;2023-04-12T13:00:33;12.70;99.90
41310;DHT22;27057;51.438;-0.010;2023-04-12T13:03:07;13.00;99.90
41310;DHT22;27057;51.438;-0.010;2023-04-12T13:05:44;12.10;99.90
41310;DHT22;27057;51.438;-0.010;2023-04-12T13:08:12;13.10;99.90
41310;DHT22;27057;51.438;-0.010;2023-04-12T13:10:39;13.00;99.90
41310;DHT22;27057;51.438;-0.010;2023-04-12T13:13:07;12.80;99.90
41310;DHT22;27057;51.438;-0.010;2023-04-12T13:16:05;12.50;99.90
41310;DHT22;27057;51.438;-0.010;2023-04-12T13:18:36;11.90;99.90
41310;DHT22;27057;51.438;-0.010;2023-04-12T13:21:06;11.00;99.90
41310;DHT22;27057;51.438;-0.010;2023-04-12T13:23:37;11.10;99.90
41310;DHT22;27057;51.438;-0.010;2023-04-12T13:26:08;11.40;99.90
41310;DHT22;27057;51.438;-0.010;2023-04-12T13:28:35;11.20;99.90
41310;DHT22;27057;51.438;-0.010;2023-04-12T13:31:05;11.50;99.90
41310;DHT22;27057;51.438;-0.010;2023-04-12T13:33:38;11.20;99.90
41310;DHT22;27057;51.438;-0.010;2023-04-12T13:36:15;11.30;99.90
41310;DHT22;27057;51.438;-0.010;2023-04-12T13:38:42;9.50;99.90
41310;DHT22;27057;51.438;-0.010;2023-04-12T13:41:09;9.10;99.90
41310;DHT22;27057;51.438;-0.010;2023-04-12T13:43:37;8.80;99.90
41310;DHT22;27057;51.438;-0.010;2023-04-12T13:46:04;8.60;99.90
41310;DHT22;27057;51.438;-0.010;2023-04-12T13:48:33;8.90;99.90
41310;DHT22;27057;51.438;-0.010;2023-04-12T13:51:00;8.90;99.90
41310;DHT22;27057;51.438;-0.010;2023-04-12T13:53:29;8.70;99.90
41310;DHT22;27057;51.438;-0.010;2023-04-12T13:55:57;9.00;99.90
41310;DHT22;27057;51.438;-0.010;2023-04-12T13:58:24;9.00;99.90
41310;DHT22;27057;51.438;-0.010;2023-04-12T14:00:52;9.20;99.90
41310;DHT22;27057;51.438;-0.010;2023-04-12T14:03:22;9.30;99.90
41310;DHT22;27057;51.438;-0.010;2023-04-12T14:05:49;9.00;99.90
41310;DHT22;27057;51.438;-0.010;2023-04-12T14:08:17;8.60;99.90
41310;DHT22;27057;51.438;-0.010;2023-04-12T14:10:45;8.20;99.90
41310;DHT22;27057;51.438;-0.010;2023-04-12T14:13:12;8.10;99.90
41310;DHT22;27057;51.438;-0.010;2023-04-12T14:15:40;8.50;99.90
41310;DHT22;27057;51.438;-0.010;2023-04-12T14:18:08;7.60;99.90
41310;DHT22;27057;51.438;-0.010;2023-04-12T14:20:35;7.80;99.90
41310;DHT22;27057;51.438;-0.010;2023-04-12T14:23:03;7.60;99.90
41310;DHT22;27057;51.438;-0.010;2023-04-12T14:25:38;7.60;99.90
41310;DHT22;27057;51.438;-0.010;2023-04-12T14:28:09;7.40;99.90
41310;DHT22;27057;51.438;-0.010;2023-04-12T14:30:38;7.60;99.90
41310;DHT22;27057;51.438;-0.010;2023-04-12T14:33:07;7.90;99.90
41310;DHT22;27057;51.438;-0.010;2023-04-12T14:35:34;8.20;99.90
41310;DHT22;27057;51.438;-0.010;2023-04-12T14:40:31;7.20;99.90
41310;DHT22;27057;51.438;-0.010;2023-04-12T14:42:58;7.10;99.90
41310;DHT22;27057;51.438;-0.010;2023-04-12T14:45:25;6.70;99.90
41310;DHT22;27057;51.438;-0.010;2023-04-12T14:47:53;6.70;99.90
41310;DHT22;27057;51.438;-0.010;2023-04-12T14:50:21;6.70;99.90
41310;DHT22;27057;51.438;-0.010;2023-04-12T14:52:48;6.80;99.90
41310;DHT22;27057;51.438;-0.010;2023-04-12T14:55:16;7.20;99.90
41310;DHT22;27057;51.438;-0.010;2023-04-12T14:57:43;7.80;99.90
41310;DHT22;27057;51.438;-0.010;2023-04-12T15:00:11;8.40;99.90
41310;DHT22;27057;51.438;-0.010;2023-04-12T15:05:10;7.70;99.90
41310;DHT22;27057;51.438;-0.010;2023-04-12T15:07:37;7.20;99.90
41310;DHT22;27057;51.438;-0.010;2023-04-12T15:10:05;7.30;99.90
41310;DHT22;27057;51.438;-0.010;2023-04-12T15:12:33;7.40;99.90
41310;DHT22;27057;51.438;-0.010;2023-04-12T15:15:01;8.80;99.90
41310;DHT22;27057;51.438;-0.010;2023-04-12T15:17:32;8.40;99.90
41310;DHT22;27057;51.438;-0.010;2023-04-12T15:20:04;7.40;99.90
41310;DHT22;27057;51.438;-0.010;2023-04-12T15:22:43;7.30;99.90
41310;DHT22;27057;51.438;-0.010;2023-04-12T15:25:10;7.30;99.90
41310;DHT22;27057;51.438;-0.010;2023-04-12T15:27:38;7.70;99.90
41310;DHT22;27057;51.438;-0.010;2023-04-12T15:30:06;8.30;99.90
41310;DHT22;27057;51.438;-0.010;2023-04-12T15:32:38;7.50;99.90
41310;DHT22;27057;51.438;-0.010;2023-04-12T15:35:09;7.40;99.90
41310;DHT22;27057;51.438;-0.010;2023-04-12T15:37:51;7.20;99.90
41310;DHT22;27057;51.438;-0.010;2023-04-12T15:40:21;7.40;99.90
41310;DHT22;27057;51.438;-0.010;2023-04-12T15:42:49;7.60;99.90
41310;DHT22;27057;51.438;-0.010;2023-04-12T15:47:44;8.30;99.90
41310;DHT22;27057;51.438;-0.010;2023-04-12T15:50:12;8.00;99.90
41310;DHT22;27057;51.438;-0.010;2023-04-12T15:52:40;8.60;99.90
41310;DHT22;27057;51.438;-0.010;2023-04-12T15:55:09;6.90;99.90
41310;DHT22;27057;51.438;-0.010;2023-04-12T15:57:37;6.80;99.90
41310;DHT22;27057;51.438;-0.010;2023-04-12T16:00:05;7.10;99.90
41310;DHT22;27057;51.438;-0.010;2023-04-12T16:02:50;6.80;99.90
41310;DHT22;27057;51.438;-0.010;2023-04-12T16:05:22;8.00;99.90
41310;DHT22;27057;51.438;-0.010;2023-04-12T16:07:51;7.10;99.90
41310;DHT22;27057;51.438;-0.010;2023-04-12T16:10:20;7.00;99.90
41310;DHT22;27057;51.438;-0.010;2023-04-12T16:12:52;7.10;99.90
41310;DHT22;27057;51.438;-0.010;2023-04-12T16:15:20;7.20;99.90
41310;DHT22;27057;51.438;-0.010;2023-04-12T16:17:48;9.30;99.90
41310;DHT22;27057;51.438;-0.010;2023-04-12T16:20:18;9.20;99.90
41310;DHT22;27057;51.438;-0.010;2023-04-12T16:22:52;9.40;99.90
41310;DHT22;27057;51.438;-0.010;2023-04-12T16:25:22;9.80;99.90
41310;DHT22;27057;51.438;-0.010;2023-04-12T16:27:53;9.20;99.90
41310;DHT22;27057;51.438;-0.010;2023-04-12T16:30:21;8.50;99.90
41310;DHT22;27057;51.438;-0.010;2023-04-12T16:32:49;8.70;99.90
41310;DHT22;27057;51.438;-0.010;2023-04-12T16:35:17;8.40;99.90
41310;DHT22;27057;51.438;-0.010;2023-04-12T16:37:45;8.70;99.90
41310;DHT22;27057;51.438;-0.010;2023-04-12T16:40:13;8.80;99.90
41310;DHT22;27057;51.438;-0.010;2023-04-12T16:42:43;9.50;99.90
41310;DHT22;27057;51.438;-0.010;2023-04-12T16:45:11;9.00;99.90
41310;DHT22;27057;51.438;-0.010;2023-04-12T16:47:41;9.10;99.90
41310;DHT22;27057;51.438;-0.010;2023-04-12T16:50:09;9.30;99.90
41310;DHT22;27057;51.438;-0.010;2023-04-12T16:52:39;8.80;99.90
41310;DHT22;27057;51.438;-0.010;2023-04-12T16:55:08;8.50;99.90
41310;DHT22;27057;51.438;-0.010;2023-04-12T16:57:40;8.30;99.90
41310;DHT22;27057;51.438;-0.010;2023-04-12T17:00:11;8.20;99.90
41310;DHT22;27057;51.438;-0.010;2023-04-12T17:02:49;8.00;99.90
41310;DHT22;27057;51.438;-0.010;2023-04-12T17:05:18;8.00;99.90
41310;DHT22;27057;51.438;-0.010;2023-04-12T17:07:47;8.00;99.90
41310;DHT22;27057;51.438;-0.010;2023-04-12T17:10:17;7.90;99.90
41310;DHT22;27057;51.438;-0.010;2023-04-12T17:12:52;8.00;99.90
41310;DHT22;27057;51.438;-0.010;2023-04-12T17:15:20;8.50;99.90
41310;DHT22;27057;51.438;-0.010;2023-04-12T17:17:50;8.30;99.90